A- A+ FrançaisEnglishEspañol中国

Services sur Internet Soldes sur Internet Des idées de cadeaux Météo Météo aéro

La météo à : Autours de vous Tarbes-Lourdes-PyrénéesNimes-Courbessac Toulouse-BlagnacAnnecy-Meythet

La météo aéronautique pour les pilotes, la préparation du vol avec les METAR (METeorological Aerodrome Report, message d'observation des conditions météorologiques pour l'aviation) et Les TAF (Terminal Aerodrome Forecast : message de prévision à court terme des conditions météorologiques pour l'aviation). Et les autres ressources comme les VAC (Visual Approch Chart) et les NOTAM (Notice To Airman) pour préprer les vols.

Aéroport Pelly Bay Townsite (Canada) / OACI CYBB/ IATA YBB

L'altitude de l'aéroport Pelly Bay Townsite est de 17 m = 56 ft. Il est situé à proximité de Kugaaruk (Canada). La météo générale à 5 jours est disponible pour Kugaaruk situé à 0.7 km.

METAR de l'aéroport Pelly Bay Townsite - CYBB

CYBB 092000Z 01019G27KT 5/8SM BLSN SKC M24/M27 A2979 RMK BLSN5 SLP092

Décodage du METAR de l'aéroport Pelly Bay Townsite (CA)

METAR émis par CYBB le lundi 9 décembre 2019 à 20:00 heure TU, il y a 41 minutes.

La visibilité est de 1 km = 0.625 sm.

La température est de -24°C = -11 °F et le point rosée est de -27°C = -17 °F . Ce qui correspond à 76% d'humidité relative.

Le QNH est de 1009 hPa = 29.8 inHg

Vent de 19 kt = 35 km/h avec des rafales à 27 kt = 50 km/h, orienté à 10°.

Pas de nuages.

BLSN

RMK BLSN5 SLP092

TAF de l'aéroport Pelly Bay Townsite - CYBB

CYBB 091838Z 0919/0924 01018G28KT 1/2SM BLSN SKC TEMPO 0919/0924 11/2SM BLSN RMK NXT FCST WILL BE ISSUED AT 101445Z

CYBB 091838Z 0919/0924 01018G28KT 1/2SM BLSN ciel dégagé temporairement 0919/0924 11/2SM BLSN remarques NXT trombe ST WILL BE ISSUED AT 101445Z

Aéroport à proximité de Pelly Bay Townsite

Météo générale à 5 jours à Kugaaruk (0.7 km)Aéroport Taloyoak (187 km)Aéroport Gjoa Haven (245 km)Aéroport Repulse Bay (271 km)Aéroport Igloolik (332 km)Aéroport Hall Beach (347 km)Aéroport Baker Lake (547 km)

Vue aérienne de l'aéroport Pelly Bay Townsite

NOTAM de l'aéroport Pelly Bay Townsite

Les NOTAM sont fournis sans aucune garantie de leur actualité. Le pilote est le seul responsable de la vérification de sa validité avant de l'utiliser opérationnellement pour préparer un vol ou l'utiliser lors de sa navigation.

Pas de NOTAM

Sources des données